Time;durP1;ratioP1;P1;durP2;ratioP2;P2;SDS_P1;SDS_P2;PMS_P1;PMS_P2;Temp;Humidity;BMP_temperature;BMP_pressure;BME280_temperature;BME280_humidity;BME280_pressure;Samples;Min_cycle;Max_cycle;Signal;HPM_P1;HPM_P2
2023/05/01 00:01:38;;;;;;;2.83;2.10;;;;;;;11.69;100.00;100153.28;5075256;28;20236;-65
2023/05/01 00:04:03;;;;;;;2.80;1.83;;;;;;;11.72;100.00;100156.50;5065140;28;20260;-68
2023/05/01 00:06:28;;;;;;;2.87;2.13;;;;;;;11.73;100.00;100159.91;5072444;28;20185;-66
2023/05/01 00:08:54;;;;;;;5.13;2.57;;;;;;;11.71;100.00;100151.41;5072619;28;20307;-66
2023/05/01 00:11:19;;;;;;;4.17;2.10;;;;;;;11.62;100.00;100153.63;5072550;28;20223;-66
2023/05/01 00:13:45;;;;;;;3.17;2.50;;;;;;;11.73;100.00;100145.28;5077770;28;20181;-67
2023/05/01 00:16:11;;;;;;;4.00;2.17;;;;;;;11.74;100.00;100144.34;5072034;28;21103;-66
2023/05/01 00:18:37;;;;;;;3.20;2.37;;;;;;;11.73;100.00;100134.13;5074980;28;20580;-66
2023/05/01 00:21:03;;;;;;;3.20;2.17;;;;;;;11.71;100.00;100135.97;5074814;28;21092;-64
2023/05/01 00:23:28;;;;;;;3.97;2.37;;;;;;;11.54;100.00;100139.53;5080232;28;20181;-66
2023/05/01 00:25:53;;;;;;;2.97;2.03;;;;;;;11.57;100.00;100135.03;5071721;28;20674;-65
2023/05/01 00:28:19;;;;;;;2.30;1.93;;;;;;;11.65;100.00;100133.75;5079503;28;20176;-65
2023/05/01 00:30:44;;;;;;;3.53;2.07;;;;;;;11.58;100.00;100134.09;5072167;28;20284;-64
2023/05/01 00:33:10;;;;;;;3.67;2.50;;;;;;;11.49;100.00;100126.91;5082481;28;20223;-65
2023/05/01 00:35:35;;;;;;;2.80;2.30;;;;;;;11.55;100.00;100121.41;5068545;28;20291;-65
2023/05/01 00:38:01;;;;;;;3.33;1.97;;;;;;;11.55;100.00;100129.13;5070692;28;20643;-65
2023/05/01 00:40:26;;;;;;;3.13;2.30;;;;;;;11.52;100.00;100120.75;5064831;28;20238;-64
2023/05/01 00:42:52;;;;;;;2.73;2.00;;;;;;;11.48;100.00;100116.72;5084619;28;20165;-65
2023/05/01 00:45:17;;;;;;;3.60;2.37;;;;;;;11.56;100.00;100120.50;5071907;28;20598;-65
2023/05/01 00:47:42;;;;;;;4.27;2.13;;;;;;;11.46;100.00;100119.34;5072163;28;20239;-65
2023/05/01 00:50:08;;;;;;;4.07;2.03;;;;;;;11.47;100.00;100113.28;5062058;28;20588;-66
2023/05/01 00:52:34;;;;;;;3.13;2.00;;;;;;;11.56;100.00;100115.34;5070655;28;20249;-66
2023/05/01 00:54:59;;;;;;;4.23;2.10;;;;;;;11.61;100.00;100108.16;5076081;28;20200;-65
2023/05/01 00:57:25;;;;;;;2.30;2.00;;;;;;;11.56;100.00;100105.03;5087117;28;20180;-66
2023/05/01 00:59:50;;;;;;;3.80;2.40;;;;;;;11.48;100.00;100108.97;5072012;28;20184;-66
2023/05/01 01:02:15;;;;;;;3.57;2.00;;;;;;;11.41;100.00;100093.88;5085350;28;20215;-66
2023/05/01 01:04:45;;;;;;;2.33;1.87;;;;;;;11.41;100.00;100098.19;5076360;28;20584;-65
2023/05/01 01:07:30;;;;;;;5.67;2.10;;;;;;;11.38;100.00;100091.47;5066712;28;20292;-65
2023/05/01 01:10:13;;;;;;;4.17;2.10;;;;;;;11.33;100.00;100090.09;5069031;28;20230;-65
2023/05/01 01:13:03;;;;;;;2.60;2.10;;;;;;;11.29;100.00;100090.25;5040684;28;20221;-66
2023/05/01 01:15:43;;;;;;;2.53;1.90;;;;;;;11.19;100.00;100090.88;5081010;28;20212;-66
2023/05/01 01:18:23;;;;;;;3.80;2.40;;;;;;;11.12;100.00;100086.06;5071508;28;20176;-66
2023/05/01 01:20:59;;;;;;;3.93;2.17;;;;;;;11.04;100.00;100079.69;5063182;28;20231;-66
2023/05/01 01:23:43;;;;;;;4.27;2.80;;;;;;;11.14;100.00;100078.28;5050600;28;20227;-65
2023/05/01 01:26:17;;;;;;;3.40;2.10;;;;;;;11.02;100.00;100078.97;5060934;28;20187;-66
2023/05/01 01:29:16;;;;;;;6.30;2.70;;;;;;;10.82;100.00;100079.16;5066790;28;20180;-65
2023/05/01 01:32:04;;;;;;;4.63;2.03;;;;;;;10.91;100.00;100071.88;5069248;28;20860;-65
2023/05/01 01:34:35;;;;;;;4.17;2.30;;;;;;;10.89;100.00;100073.69;5071387;28;20188;-65
2023/05/01 01:37:10;;;;;;;4.90;2.40;;;;;;;10.79;100.00;100075.94;5066469;28;20540;-65
2023/05/01 01:39:47;;;;;;;4.43;2.23;;;;;;;10.77;100.00;100077.78;5060540;28;20168;-65
2023/05/01 01:42:18;;;;;;;3.70;2.20;;;;;;;10.80;100.00;100070.72;5058407;28;20231;-64
2023/05/01 01:44:50;;;;;;;2.40;2.20;;;;;;;10.85;100.00;100065.31;5065689;28;20215;-66
2023/05/01 01:47:18;;;;;;;5.83;2.20;;;;;;;10.92;100.00;100068.38;5070309;28;20272;-67
2023/05/01 01:49:51;;;;;;;3.47;2.27;;;;;;;10.76;100.00;100063.25;5069194;28;20711;-67
2023/05/01 01:52:19;;;;;;;4.23;2.27;;;;;;;10.86;100.00;100061.00;5059900;28;20228;-64
2023/05/01 01:54:50;;;;;;;4.30;2.47;;;;;;;10.94;100.00;100062.22;5069256;28;20189;-65
2023/05/01 01:57:18;;;;;;;5.80;2.40;;;;;;;10.91;100.00;100056.41;5083480;28;20279;-64
2023/05/01 01:59:46;;;;;;;3.27;2.07;;;;;;;10.73;100.00;100064.25;5071443;28;20223;-65
2023/05/01 02:02:14;;;;;;;2.93;2.13;;;;;;;10.78;100.00;100056.28;5061156;28;20309;-65
2023/05/01 02:04:41;;;;;;;4.50;2.30;;;;;;;10.63;100.00;100055.38;5070791;28;20235;-65
2023/05/01 02:07:08;;;;;;;5.10;2.90;;;;;;;10.68;100.00;100050.84;5069779;28;20600;-65
2023/05/01 02:09:35;;;;;;;4.10;2.43;;;;;;;10.65;100.00;100053.56;5069948;28;20235;-65
2023/05/01 02:12:03;;;;;;;3.60;2.07;;;;;;;10.48;100.00;100057.06;5062460;28;20303;-64
2023/05/01 02:14:30;;;;;;;2.30;2.10;;;;;;;10.52;100.00;100053.41;5065970;28;20292;-69
2023/05/01 02:16:57;;;;;;;3.23;2.37;;;;;;;10.47;100.00;100051.09;5066999;28;20515;-65
2023/05/01 02:19:23;;;;;;;2.27;2.00;;;;;;;10.42;100.00;100053.09;5090853;28;20180;-64
2023/05/01 02:21:51;;;;;;;2.43;2.23;;;;;;;10.55;100.00;100047.28;5067067;28;20674;-65
2023/05/01 02:24:18;;;;;;;2.63;2.13;;;;;;;10.49;100.00;100048.44;5073333;28;20177;-64
2023/05/01 02:26:48;;;;;;;6.63;3.10;;;;;;;10.46;100.00;100043.47;5072776;28;20173;-66
2023/05/01 02:29:14;;;;;;;3.93;2.33;;;;;;;10.42;100.00;100042.81;5073339;28;20190;-65
2023/05/01 02:31:39;;;;;;;4.13;2.40;;;;;;;10.39;100.00;100042.97;5076806;28;20216;-65
2023/05/01 02:34:04;;;;;;;3.33;2.50;;;;;;;10.25;100.00;100042.88;5077522;28;20181;-65
2023/05/01 02:36:32;;;;;;;3.03;2.27;;;;;;;10.23;100.00;100042.13;5073863;28;20180;-65
2023/05/01 02:38:58;;;;;;;6.90;2.73;;;;;;;10.29;100.00;100036.63;5074518;28;20181;-64
2023/05/01 02:41:26;;;;;;;3.93;2.17;;;;;;;10.15;100.00;100038.22;5065926;28;20254;-65
2023/05/01 02:43:57;;;;;;;3.43;2.83;;;;;;;10.15;100.00;100043.34;5072784;28;20185;-67
2023/05/01 02:46:24;;;;;;;5.33;2.53;;;;;;;10.17;100.00;100035.53;5074214;28;20195;-64
2023/05/01 02:48:50;;;;;;;3.93;2.20;;;;;;;10.14;100.00;100040.88;5071004;28;20276;-65
2023/05/01 02:51:17;;;;;;;5.20;2.80;;;;;;;10.07;100.00;100042.09;5073731;28;20298;-64
2023/05/01 02:53:42;;;;;;;4.53;2.37;;;;;;;10.17;100.00;100035.53;5070916;28;20185;-64
2023/05/01 02:56:08;;;;;;;4.60;2.50;;;;;;;10.09;100.00;100035.97;5080877;28;20260;-64
2023/05/01 02:58:33;;;;;;;2.63;2.37;;;;;;;10.09;100.00;100037.72;5079783;28;20177;-66
2023/05/01 03:00:59;;;;;;;3.90;2.60;;;;;;;10.10;100.00;100037.63;5060629;28;20698;-66
2023/05/01 03:03:25;;;;;;;4.43;2.47;;;;;;;10.11;100.00;100031.59;5082242;28;20188;-66
2023/05/01 03:05:50;;;;;;;5.97;2.40;;;;;;;10.00;100.00;100034.72;5073675;28;20168;-66
2023/05/01 03:08:16;;;;;;;3.87;2.70;;;;;;;9.92;100.00;100034.28;5072995;28;20237;-65
2023/05/01 03:10:42;;;;;;;5.27;2.90;;;;;;;9.93;100.00;100035.94;5065480;28;20285;-64
2023/05/01 03:13:07;;;;;;;4.80;2.60;;;;;;;9.96;100.00;100032.38;5083939;28;20593;-64
2023/05/01 03:15:32;;;;;;;4.40;2.63;;;;;;;9.94;100.00;100024.75;5065033;28;20326;-64
2023/05/01 03:17:58;;;;;;;3.17;2.43;;;;;;;9.97;100.00;100022.06;5085041;28;20603;-65
2023/05/01 03:20:23;;;;;;;7.57;2.57;;;;;;;9.93;100.00;100020.53;5066302;28;20231;-65
2023/05/01 03:22:48;;;;;;;3.03;2.50;;;;;;;9.98;100.00;100023.69;5086291;28;20181;-66
2023/05/01 03:25:14;;;;;;;5.07;2.60;;;;;;;10.01;100.00;100017.56;5072997;28;20188;-66
2023/05/01 03:27:39;;;;;;;3.77;2.93;;;;;;;10.09;100.00;100023.13;5073019;28;20217;-66
2023/05/01 03:30:05;;;;;;;3.63;2.80;;;;;;;10.14;100.00;100015.16;5056371;28;20176;-64
2023/05/01 03:32:31;;;;;;;4.63;2.57;;;;;;;10.10;100.00;100013.69;5078274;28;20217;-64
2023/05/01 03:34:56;;;;;;;6.60;2.73;;;;;;;10.20;100.00;100014.00;5073095;28;20196;-64
2023/05/01 03:37:22;;;;;;;6.03;3.20;;;;;;;10.24;100.00;100021.47;5073702;28;20216;-66
2023/05/01 03:39:47;;;;;;;6.00;3.00;;;;;;;10.28;100.00;100015.25;5073322;28;20179;-64
2023/05/01 03:42:12;;;;;;;6.17;2.67;;;;;;;10.28;100.00;100007.53;5077387;28;20301;-66
2023/05/01 03:44:37;;;;;;;3.23;2.70;;;;;;;10.31;100.00;100015.06;5083643;28;20268;-64
2023/05/01 03:47:03;;;;;;;3.50;2.67;;;;;;;10.20;100.00;100008.88;5073201;28;20269;-65
2023/05/01 03:49:28;;;;;;;5.17;3.07;;;;;;;10.14;100.00;100003.13;5082474;28;20635;-65
2023/05/01 03:51:54;;;;;;;3.87;2.73;;;;;;;10.24;100.00;100000.06;5077046;28;20303;-64
2023/05/01 03:54:19;;;;;;;6.77;2.70;;;;;;;10.00;100.00;100001.31;5074062;28;20189;-65
2023/05/01 03:56:45;;;;;;;3.33;2.73;;;;;;;10.15;100.00;99998.84;5084952;28;20658;-65
2023/05/01 03:59:10;;;;;;;3.20;2.83;;;;;;;10.21;100.00;99998.50;5082726;28;20172;-65
2023/05/01 04:01:35;;;;;;;4.47;3.33;;;;;;;10.23;100.00;100000.97;5074475;28;20224;-64
2023/05/01 04:04:01;;;;;;;8.93;2.90;;;;;;;10.20;100.00;100004.56;5076263;28;20628;-66
2023/05/01 04:06:26;;;;;;;6.13;2.97;;;;;;;10.30;100.00;100005.69;5085773;28;20184;-65
2023/05/01 04:08:52;;;;;;;2.53;2.33;;;;;;;10.26;100.00;100000.81;5072504;28;20232;-64
2023/05/01 04:11:17;;;;;;;4.60;2.87;;;;;;;10.13;100.00;99998.94;5076209;28;20700;-64
2023/05/01 04:13:42;;;;;;;3.27;2.90;;;;;;;10.15;100.00;100002.22;5080078;28;20195;-65
2023/05/01 04:16:08;;;;;;;4.80;2.83;;;;;;;10.29;100.00;100008.34;5071483;28;20694;-65
2023/05/01 04:18:33;;;;;;;5.23;2.83;;;;;;;10.37;100.00;99992.53;5072507;28;20196;-65
2023/05/01 04:20:58;;;;;;;4.70;2.47;;;;;;;10.39;100.00;99994.09;5069478;28;20257;-66
2023/05/01 04:23:23;;;;;;;3.33;2.63;;;;;;;10.51;100.00;100000.31;5080796;28;20192;-65
2023/05/01 04:25:49;;;;;;;4.20;2.50;;;;;;;10.43;100.00;99999.91;5071733;28;20216;-66
2023/05/01 04:28:14;;;;;;;2.93;2.70;;;;;;;10.51;100.00;99996.94;5072433;28;20643;-64
2023/05/01 04:30:39;;;;;;;6.10;2.97;;;;;;;10.61;100.00;99998.06;5066852;28;20219;-66
2023/05/01 04:33:10;;;;;;;5.37;2.70;;;;;;;10.52;100.00;100001.13;5083009;28;20180;-65
2023/05/01 04:35:39;;;;;;;5.37;2.90;;;;;;;10.54;100.00;99999.31;5071580;28;20539;-65
2023/05/01 04:38:05;;;;;;;5.10;3.13;;;;;;;10.58;100.00;99999.06;5072057;28;20659;-65
2023/05/01 04:40:31;;;;;;;7.13;2.73;;;;;;;10.65;100.00;100002.13;5063443;28;20231;-65
2023/05/01 04:42:56;;;;;;;4.23;3.40;;;;;;;10.69;100.00;100000.19;5083138;28;20188;-65
2023/05/01 04:45:21;;;;;;;4.97;3.00;;;;;;;10.92;100.00;99996.31;5071376;28;20189;-65
2023/05/01 04:47:46;;;;;;;6.57;3.00;;;;;;;10.99;100.00;100000.19;5072207;28;20188;-65
2023/05/01 04:50:12;;;;;;;4.77;3.20;;;;;;;10.78;100.00;99999.69;5062729;28;20195;-65
2023/05/01 04:52:37;;;;;;;4.50;2.90;;;;;;;10.91;100.00;100003.19;5086332;28;20176;-65
2023/05/01 04:55:03;;;;;;;6.17;2.87;;;;;;;10.88;100.00;100005.13;5071369;28;20197;-65
2023/05/01 04:57:28;;;;;;;3.60;2.97;;;;;;;10.89;100.00;100007.63;5085446;28;20180;-66
2023/05/01 04:59:54;;;;;;;4.80;3.47;;;;;;;10.98;100.00;100007.06;5077176;28;20667;-66
2023/05/01 05:02:19;;;;;;;6.83;3.43;;;;;;;10.93;100.00;100008.28;5091524;28;20215;-66
2023/05/01 05:04:44;;;;;;;5.23;3.47;;;;;;;10.69;100.00;100003.59;5061351;28;20265;-66
2023/05/01 05:07:10;;;;;;;5.37;3.20;;;;;;;10.88;100.00;100003.38;5071446;28;20197;-65
2023/05/01 05:09:35;;;;;;;5.90;3.10;;;;;;;10.87;100.00;100008.63;5071447;28;20235;-65
2023/05/01 05:12:02;;;;;;;6.73;3.03;;;;;;;10.97;100.00;99995.13;5076544;28;20798;-65
2023/05/01 05:14:27;;;;;;;3.87;3.10;;;;;;;11.11;100.00;100001.22;5071155;28;20201;-65
2023/05/01 05:16:53;;;;;;;5.83;3.80;;;;;;;11.28;100.00;100002.81;5071536;28;20183;-65
2023/05/01 05:19:18;;;;;;;4.67;3.07;;;;;;;11.32;100.00;100000.88;5071791;28;20565;-64
2023/05/01 05:21:43;;;;;;;6.83;3.50;;;;;;;11.26;100.00;100002.91;5074081;28;20227;-65
2023/05/01 05:24:09;;;;;;;6.17;3.87;;;;;;;11.29;100.00;100005.28;5073977;28;20235;-65
2023/05/01 05:26:34;;;;;;;6.00;3.47;;;;;;;11.40;100.00;100002.09;5071177;28;20256;-66
2023/05/01 05:28:59;;;;;;;5.83;3.10;;;;;;;11.27;100.00;100004.53;5071559;28;20180;-64
2023/05/01 05:31:24;;;;;;;4.43;2.83;;;;;;;11.44;100.00;100000.16;5071869;28;20618;-64
2023/05/01 05:33:49;;;;;;;4.20;3.17;;;;;;;11.44;100.00;100000.97;5076340;28;20173;-65
2023/05/01 05:36:15;;;;;;;3.50;3.20;;;;;;;11.49;100.00;100002.47;5070312;28;20678;-65
2023/05/01 05:38:40;;;;;;;4.57;3.50;;;;;;;11.68;100.00;100005.56;5071380;28;20185;-65
2023/05/01 05:41:05;;;;;;;6.70;3.07;;;;;;;11.51;100.00;99995.44;5069059;28;20253;-65
2023/05/01 05:43:31;;;;;;;4.17;3.10;;;;;;;11.35;100.00;99998.13;5078747;28;20661;-64
2023/05/01 05:45:57;;;;;;;3.90;2.97;;;;;;;11.42;100.00;100000.25;5070537;28;20181;-64
2023/05/01 05:48:23;;;;;;;5.13;3.47;;;;;;;11.46;100.00;99998.28;5070039;28;20268;-64
2023/05/01 05:50:49;;;;;;;5.50;3.50;;;;;;;11.69;100.00;100003.81;5066829;28;20323;-64
2023/05/01 05:53:15;;;;;;;6.67;3.43;;;;;;;11.84;99.60;100002.88;5081200;28;20173;-66
2023/05/01 05:55:42;;;;;;;6.00;3.57;;;;;;;11.91;100.00;99999.00;5078468;28;20214;-63
2023/05/01 05:58:07;;;;;;;6.27;3.43;;;;;;;11.91;100.00;99996.44;5093376;28;20200;-65
2023/05/01 06:00:32;;;;;;;5.67;3.17;;;;;;;11.99;98.96;99998.56;5068680;28;20640;-66
2023/05/01 06:02:57;;;;;;;5.73;3.67;;;;;;;12.21;99.62;99997.22;5086774;28;20191;-65
2023/05/01 06:05:23;;;;;;;5.60;3.57;;;;;;;12.23;99.02;99992.78;5074636;28;20549;-65
2023/05/01 06:07:48;;;;;;;5.73;3.60;;;;;;;12.53;96.57;99994.34;5086466;28;20196;-66
2023/05/01 06:10:13;;;;;;;4.97;3.57;;;;;;;12.76;93.41;99998.00;5065169;28;20227;-68
2023/05/01 06:12:40;;;;;;;3.60;3.20;;;;;;;12.46;95.12;99999.06;5073663;28;20195;-68
2023/05/01 06:15:06;;;;;;;4.30;3.13;;;;;;;12.01;97.01;100004.44;5069522;28;20198;-67
2023/05/01 06:17:31;;;;;;;6.50;3.77;;;;;;;12.13;97.09;99999.44;5070442;28;20208;-68
2023/05/01 06:19:56;;;;;;;5.43;3.80;;;;;;;12.05;96.85;99995.59;5074448;28;20212;-68
2023/05/01 06:22:22;;;;;;;7.17;4.47;;;;;;;12.31;96.80;99982.00;5078808;28;20234;-67
2023/05/01 06:24:47;;;;;;;4.53;3.33;;;;;;;12.57;93.24;99983.72;5085686;28;20184;-67
2023/05/01 06:27:13;;;;;;;6.27;4.10;;;;;;;12.88;93.40;99986.06;5073858;28;20179;-68
2023/05/01 06:29:38;;;;;;;5.33;3.73;;;;;;;13.10;89.68;99979.44;5074636;28;20812;-68
2023/05/01 06:32:03;;;;;;;5.33;3.47;;;;;;;12.98;91.04;99981.13;5079569;28;20223;-67
2023/05/01 06:34:29;;;;;;;4.70;3.70;;;;;;;12.95;89.38;99978.72;5075550;28;20323;-73
2023/05/01 06:36:55;;;;;;;3.90;3.47;;;;;;;13.48;87.74;99981.22;5094502;28;20298;-71
2023/05/01 06:39:20;;;;;;;4.60;3.57;;;;;;;14.03;82.97;99972.22;5071100;28;20193;-67
2023/05/01 06:41:46;;;;;;;4.90;3.70;;;;;;;14.72;75.46;99970.75;5077339;28;20223;-67
2023/05/01 06:44:12;;;;;;;7.80;3.50;;;;;;;14.56;72.39;99965.84;5082311;28;20203;-67
2023/05/01 06:46:37;;;;;;;4.20;3.20;;;;;;;15.02;70.85;99974.59;5085467;28;20259;-68
2023/05/01 06:49:03;;;;;;;5.03;3.60;;;;;;;15.09;68.48;99973.16;5081576;28;20210;-66
2023/05/01 06:51:29;;;;;;;6.20;3.57;;;;;;;15.45;66.59;99967.91;5082098;28;20232;-69
2023/05/01 06:53:54;;;;;;;5.63;3.20;;;;;;;16.00;60.36;99978.34;5078282;28;20616;-68
2023/05/01 06:56:20;;;;;;;4.23;3.10;;;;;;;16.78;56.22;99976.38;5083028;28;20212;-67
2023/05/01 06:58:45;;;;;;;4.67;3.20;;;;;;;16.94;54.38;99969.94;5081116;28;20168;-67
2023/05/01 07:01:11;;;;;;;3.97;3.43;;;;;;;17.30;51.75;99970.38;5064845;28;20259;-65
2023/05/01 07:03:36;;;;;;;4.77;3.17;;;;;;;17.14;52.43;99970.03;5080631;28;20192;-65
2023/05/01 07:06:01;;;;;;;5.90;3.33;;;;;;;16.78;53.62;99976.38;5085616;28;20176;-66
2023/05/01 07:08:27;;;;;;;4.23;3.83;;;;;;;16.26;57.36;99973.66;5073302;28;20220;-65
2023/05/01 07:10:52;;;;;;;5.37;3.87;;;;;;;15.82;59.80;99976.25;5069834;28;21186;-64
2023/05/01 07:13:18;;;;;;;6.37;3.53;;;;;;;15.31;64.20;99974.97;5067126;28;20212;-68
2023/05/01 07:15:44;;;;;;;4.83;3.17;;;;;;;15.39;65.49;99968.38;5067774;28;20247;-66
2023/05/01 07:18:11;;;;;;;5.43;3.50;;;;;;;15.01;66.70;99963.41;5083529;28;20188;-67
2023/05/01 07:20:36;;;;;;;5.73;3.87;;;;;;;14.80;71.45;99963.25;5067017;28;20666;-67
2023/05/01 07:23:02;;;;;;;5.63;3.17;;;;;;;14.28;77.35;99972.22;5076181;28;20195;-68
2023/05/01 07:25:28;;;;;;;6.07;3.93;;;;;;;14.15;79.00;99975.69;5073089;28;20181;-68
2023/05/01 07:27:53;;;;;;;5.57;4.07;;;;;;;14.33;76.76;99967.53;5070854;28;20268;-67
2023/05/01 07:30:19;;;;;;;7.83;3.93;;;;;;;14.31;76.98;99964.22;5042600;28;20303;-67
2023/05/01 07:32:44;;;;;;;7.90;4.10;;;;;;;14.52;75.23;99969.59;5081352;28;20180;-67
2023/05/01 07:35:10;;;;;;;3.93;3.20;;;;;;;14.58;74.22;99968.34;5068204;28;20208;-68
2023/05/01 07:37:35;;;;;;;4.80;4.30;;;;;;;14.85;72.69;99966.31;5072977;28;20188;-68
2023/05/01 07:40:01;;;;;;;6.97;3.80;;;;;;;14.64;69.93;99966.09;5072677;28;20754;-69
2023/05/01 07:42:26;;;;;;;4.97;3.67;;;;;;;14.77;71.61;99968.66;5075644;28;20224;-68
2023/05/01 07:44:52;;;;;;;5.80;4.23;;;;;;;14.90;69.69;99971.16;5072841;28;20651;-67
2023/05/01 07:47:18;;;;;;;5.17;4.07;;;;;;;15.13;69.24;99966.00;5073219;28;20260;-68
2023/05/01 07:49:43;;;;;;;7.83;4.40;;;;;;;15.52;66.42;99966.47;5086305;28;20535;-69
2023/05/01 07:52:09;;;;;;;4.43;3.77;;;;;;;14.99;69.07;99969.63;5078167;28;20231;-67
2023/05/01 07:54:35;;;;;;;6.87;3.90;;;;;;;14.94;68.73;99969.16;5065177;28;20193;-68
2023/05/01 07:57:01;;;;;;;8.13;4.10;;;;;;;15.04;69.49;99967.50;5070308;28;20195;-67
2023/05/01 07:59:28;;;;;;;5.57;3.83;;;;;;;15.02;68.04;99964.25;5079697;28;20183;-68
2023/05/01 08:01:53;;;;;;;7.80;4.33;;;;;;;15.19;69.54;99960.34;5078981;28;20220;-66
2023/05/01 08:04:21;;;;;;;7.10;4.30;;;;;;;15.24;69.80;99960.81;5071624;28;20195;-68
2023/05/01 08:06:50;;;;;;;7.20;3.80;;;;;;;15.56;67.33;99961.88;5070547;28;20203;-68
2023/05/01 08:09:16;;;;;;;9.17;3.90;;;;;;;15.74;66.39;99960.44;5070855;28;20319;-67
2023/05/01 08:11:41;;;;;;;5.37;3.90;;;;;;;15.74;63.04;99963.03;5064263;28;20328;-66
2023/05/01 08:14:06;;;;;;;5.53;4.00;;;;;;;15.48;63.10;99965.88;5075458;28;20196;-68
2023/05/01 08:16:33;;;;;;;4.47;4.03;;;;;;;15.30;66.12;99964.72;5071868;28;20224;-68
2023/05/01 08:18:59;;;;;;;5.77;3.43;;;;;;;15.77;63.56;99955.00;5071146;28;20542;-68
2023/05/01 08:21:24;;;;;;;4.63;3.80;;;;;;;15.64;63.18;99949.13;5072627;28;20220;-67
2023/05/01 08:23:50;;;;;;;4.53;3.37;;;;;;;15.98;60.76;99955.09;5075740;28;20177;-69
2023/05/01 08:26:15;;;;;;;7.33;4.27;;;;;;;15.77;61.84;99949.00;5068550;28;20189;-68
2023/05/01 08:28:41;;;;;;;4.27;3.83;;;;;;;16.01;61.61;99955.81;5076043;28;20181;-67
2023/05/01 08:31:06;;;;;;;6.00;4.20;;;;;;;16.12;61.01;99956.63;5066908;28;20225;-67
2023/05/01 08:33:31;;;;;;;6.30;4.03;;;;;;;16.19;60.49;99956.13;5083383;28;20235;-68
2023/05/01 08:35:57;;;;;;;6.27;3.73;;;;;;;15.89;63.04;99955.00;5068757;28;20201;-67
2023/05/01 08:38:22;;;;;;;6.07;3.90;;;;;;;15.88;65.53;99953.38;5072159;28;20195;-66
2023/05/01 08:40:52;;;;;;;4.93;3.80;;;;;;;16.11;63.15;99954.97;5067618;28;20212;-68
2023/05/01 08:43:18;;;;;;;8.13;3.87;;;;;;;17.01;58.21;99947.69;5066299;28;20209;-67
2023/05/01 08:45:46;;;;;;;4.67;3.77;;;;;;;18.02;53.33;99949.50;5067744;28;20176;-68
2023/05/01 08:48:15;;;;;;;6.13;3.27;;;;;;;18.15;51.20;99946.66;5070216;28;20234;-68
2023/05/01 08:50:45;;;;;;;4.23;3.77;;;;;;;18.62;48.28;99944.16;5065050;28;20689;-66
2023/05/01 08:53:12;;;;;;;6.87;4.10;;;;;;;18.23;48.59;99954.59;5076842;28;20229;-65
2023/05/01 08:55:39;;;;;;;8.20;4.10;;;;;;;18.23;49.98;99949.38;5073152;28;20200;-66
2023/05/01 08:58:06;;;;;;;4.77;3.77;;;;;;;17.40;51.29;99955.66;5080509;28;20195;-68
2023/05/01 09:00:34;;;;;;;6.00;4.10;;;;;;;17.68;50.99;99948.06;5062854;28;20223;-69
2023/05/01 09:03:03;;;;;;;7.47;3.67;;;;;;;18.27;49.57;99953.38;5062279;28;20318;-68
2023/05/01 09:05:31;;;;;;;6.40;4.00;;;;;;;18.26;48.57;99948.28;5072837;28;20169;-69
2023/05/01 09:07:57;;;;;;;4.43;3.73;;;;;;;19.42;46.08;99946.38;5069780;28;20201;-68
2023/05/01 09:10:24;;;;;;;5.97;3.27;;;;;;;21.06;42.35;99948.81;5063658;28;20242;-69
2023/05/01 09:12:56;;;;;;;4.50;3.90;;;;;;;21.50;39.70;99955.69;5070256;28;20173;-69
2023/05/01 09:15:22;;;;;;;5.53;4.10;;;;;;;21.27;40.51;99952.81;5068601;28;20200;-67
2023/05/01 09:17:47;;;;;;;7.87;4.20;;;;;;;22.74;39.63;99950.59;5066958;28;20513;-67
2023/05/01 09:20:13;;;;;;;4.33;3.90;;;;;;;23.02;37.44;99952.81;5061898;28;20260;-67
2023/05/01 09:22:39;;;;;;;5.85;4.03;;;;;;;23.59;36.37;99949.19;5070318;28;20199;-66
2023/05/01 09:25:05;;;;;;;5.47;3.97;;;;;;;23.17;36.47;99953.78;5070336;28;20177;-68
2023/05/01 09:27:34;;;;;;;5.78;3.25;;;;;;;23.27;35.69;99952.75;5066772;28;20259;-69
2023/05/01 09:29:59;;;;;;;4.85;3.25;;;;;;;23.59;36.82;99943.94;5069940;28;20263;-67
2023/05/01 09:32:29;;;;;;;5.53;3.40;;;;;;;23.94;35.53;99956.69;5076239;28;20328;-66
2023/05/01 09:35:08;;;;;;;4.32;3.35;;;;;;;24.62;34.39;99944.50;5081121;28;20204;-68
2023/05/01 09:37:33;;;;;;;4.88;3.90;;;;;;;24.16;35.03;99945.38;5081561;28;20194;-66
2023/05/01 09:40:09;;;;;;;6.28;3.85;;;;;;;24.59;33.35;99947.47;5074046;28;20200;-67
2023/05/01 09:42:39;;;;;;;6.22;4.20;;;;;;;25.63;32.74;99945.81;5054990;28;20215;-67
2023/05/01 09:45:13;;;;;;;5.40;3.85;;;;;;;23.90;33.83;99943.06;5085180;28;20176;-66
2023/05/01 09:47:38;;;;;;;5.97;3.78;;;;;;;23.65;34.56;99935.38;5071379;28;20181;-66
2023/05/01 09:50:04;;;;;;;6.25;3.85;;;;;;;25.50;32.69;99943.84;5061251;28;20183;-66
2023/05/01 09:52:30;;;;;;;5.32;3.35;;;;;;;25.59;32.54;99942.75;5066316;28;20656;-66
2023/05/01 09:55:10;;;;;;;5.68;3.83;;;;;;;25.92;31.58;99946.72;5065354;28;20211;-68
2023/05/01 09:57:37;;;;;;;3.97;3.10;;;;;;;24.02;33.14;99938.25;5084490;28;20176;-66
2023/05/01 10:00:07;;;;;;;5.70;3.65;;;;;;;22.97;35.35;99940.22;5068332;28;20184;-66
2023/05/01 10:02:33;;;;;;;7.88;3.80;;;;;;;21.98;37.62;99942.91;5073148;28;20592;-67
2023/05/01 10:04:58;;;;;;;3.92;3.33;;;;;;;20.96;39.83;99935.00;5069099;28;20169;-67
2023/05/01 10:07:25;;;;;;;4.43;3.47;;;;;;;21.72;38.93;99932.56;5070882;28;20275;-68
2023/05/01 10:09:50;;;;;;;4.15;3.15;;;;;;;22.07;38.68;99936.69;5082888;28;20292;-68
2023/05/01 10:12:27;;;;;;;3.70;3.10;;;;;;;21.81;40.34;99931.59;5076233;28;20224;-66
2023/05/01 10:14:53;;;;;;;5.00;3.67;;;;;;;22.12;40.58;99933.59;5069103;28;20297;-66
2023/05/01 10:17:19;;;;;;;5.47;3.42;;;;;;;23.74;36.15;99923.00;5071071;28;20188;-66
2023/05/01 10:19:45;;;;;;;4.70;2.72;;;;;;;24.80;34.68;99930.19;5069372;28;20184;-67
2023/05/01 10:22:11;;;;;;;3.38;2.80;;;;;;;25.32;34.15;99931.06;5057843;28;20452;-67
2023/05/01 10:24:38;;;;;;;4.88;3.50;;;;;;;24.49;34.67;99937.19;5065758;28;20272;-66
2023/05/01 10:27:06;;;;;;;6.60;3.10;;;;;;;22.26;37.79;99939.97;5066406;28;20197;-66
2023/05/01 10:29:33;;;;;;;3.22;2.67;;;;;;;22.84;36.42;99938.13;5066867;28;20958;-68
2023/05/01 10:32:00;;;;;;;5.40;3.10;;;;;;;23.45;37.43;99926.28;5062242;28;20256;-65
2023/05/01 10:34:26;;;;;;;4.18;2.75;;;;;;;23.79;36.08;99938.22;5069195;28;20211;-70
2023/05/01 10:36:58;;;;;;;4.00;2.92;;;;;;;22.49;36.52;99940.16;5070097;28;20177;-65
2023/05/01 10:39:33;;;;;;;3.72;2.97;;;;;;;;;;5069589;28;20263;-66
2023/05/01 10:42:03;;;;;;;3.80;3.05;;;;;;;23.26;36.05;99927.50;5061981;28;20307;-65
2023/05/01 10:44:29;;;;;;;4.03;3.53;;;;;;;22.70;36.81;99930.97;5073192;28;20181;-70
2023/05/01 10:46:55;;;;;;;6.43;3.08;;;;;;;22.26;38.60;99934.72;5069481;28;20185;-67
2023/05/01 10:49:20;;;;;;;3.28;2.97;;;;;;;22.60;38.52;99930.31;5073708;28;20222;-68
2023/05/01 10:51:59;;;;;;;4.10;3.15;;;;;;;23.01;37.40;99917.09;5077585;28;20220;-66
2023/05/01 10:54:32;;;;;;;4.72;2.95;;;;;;;22.30;39.12;99916.88;5085706;28;20185;-70
2023/05/01 10:57:00;;;;;;;3.15;2.85;;;;;;;23.16;38.68;99919.88;5082305;28;20635;-67
2023/05/01 10:59:26;;;;;;;4.25;3.67;;;;;;;23.49;38.46;99910.03;5072594;28;20235;-66
2023/05/01 11:01:52;;;;;;;4.47;3.30;;;;;;;23.08;38.36;99912.78;5040319;28;20235;-70
2023/05/01 11:04:23;;;;;;;3.55;3.05;;;;;;;22.29;41.30;99913.44;5071168;28;20185;-68
2023/05/01 11:07:00;;;;;;;5.80;3.50;;;;;;;21.97;41.11;99915.06;5073216;28;20300;-67
2023/05/01 11:09:48;;;;;;;5.63;3.40;;;;;;;20.08;42.67;99914.94;5074128;28;20557;-66
2023/05/01 11:12:15;;;;;;;4.60;3.30;;;;;;;20.34;43.26;99909.75;5063650;28;20232;-67
2023/05/01 11:14:53;;;;;;;3.90;3.10;;;;;;;20.78;44.15;99906.34;5072548;28;20567;-67
2023/05/01 11:17:40;;;;;;;6.53;3.67;;;;;;;21.35;43.85;99915.41;5067644;28;20590;-66
2023/05/01 11:20:31;;;;;;;3.60;3.20;;;;;;;22.02;42.52;99906.75;5063656;28;20624;-66
2023/05/01 11:22:57;;;;;;;8.57;3.90;;;;;;;22.59;42.70;99905.06;5084758;28;20187;-66
2023/05/01 11:25:31;;;;;;;4.27;3.87;;;;;;;22.58;41.19;99903.47;5071761;28;20184;-66
2023/05/01 11:28:00;;;;;;;5.37;3.63;;;;;;;22.36;41.91;99897.88;5073052;28;20251;-67